< < Back
Terminal Aerodrome Forecast


Current Version              Previous Versions:   1  2  3  4  5  6  7  8  9  

Terminal Aerodrome Forecast

566
FTUS44 KBMX 251900 AAA
TAFANB
TAF AMD
KANB 251912Z 2519/2618 34006KT P6SM SKC
     FM260000 00000KT P6SM SKC
     FM261500 29006KT P6SM SKC=



Latest METAR

871
SAUS70 KWBC 260258
MTRANB
METAR KANB 260253Z AUTO 00000KT 10SM CLR 13/12 A3007 RMK AO2 SLP182
T01330117 53006


USA.gov is the U.S. government's official web portal to all federal, state and local government web resources and services.